createdAt,value
2022-12-10T00:01:27.600Z,97605.75
2022-12-10T00:03:55.214Z,97614.13
2022-12-10T00:06:24.871Z,97595.72
2022-12-10T00:08:52.587Z,97600.09
2022-12-10T00:11:21.911Z,97585.19
2022-12-10T00:13:50.298Z,97587.88
2022-12-10T00:16:18.959Z,97583.47
2022-12-10T00:18:46.766Z,97578.97
2022-12-10T00:21:17.354Z,97576.28
2022-12-10T00:23:45.014Z,97568.06
2022-12-10T00:26:24.549Z,97570.22
2022-12-10T00:28:52.727Z,97579.84
2022-12-10T00:31:22.892Z,97574.47
2022-12-10T00:33:52.041Z,97592.03
2022-12-10T00:36:23.061Z,97582.00
2022-12-10T00:38:50.519Z,97591.91
2022-12-10T00:41:18.035Z,97588.50
2022-12-10T00:43:45.531Z,97585.81
2022-12-10T00:46:14.075Z,97588.38
2022-12-10T00:48:42.124Z,97576.75
2022-12-10T00:51:17.902Z,97585.69
2022-12-10T00:53:46.152Z,97598.59
2022-12-10T00:56:14.998Z,97601.13
2022-12-10T00:58:42.174Z,97592.38
2022-12-10T01:01:30.305Z,97586.66
2022-12-10T01:03:59.572Z,97589.91
2022-12-10T01:06:29.991Z,97587.59
2022-12-10T01:08:59.490Z,97579.09
2022-12-10T01:11:33.548Z,97586.78
2022-12-10T01:14:01.000Z,97588.34
2022-12-10T01:16:28.351Z,97600.63
2022-12-10T01:18:57.565Z,97587.34
2022-12-10T01:21:26.080Z,97583.09
2022-12-10T01:23:53.543Z,97588.19
2022-12-10T01:26:26.482Z,97586.38
2022-12-10T01:28:56.317Z,97589.19
2022-12-10T01:31:32.832Z,97582.13
2022-12-10T01:34:00.379Z,97571.38
2022-12-10T01:36:34.884Z,97569.22
2022-12-10T01:39:03.288Z,97566.41
2022-12-10T01:41:37.425Z,97565.97
2022-12-10T01:44:07.059Z,97570.34
2022-12-10T01:46:40.305Z,97570.38
2022-12-10T01:49:11.314Z,97579.41
2022-12-10T01:51:40.898Z,97563.41
2022-12-10T01:54:11.288Z,97544.00
2022-12-10T01:56:46.220Z,97561.03
2022-12-10T01:59:14.538Z,97553.06
2022-12-10T02:01:44.169Z,97551.81
2022-12-10T02:04:27.354Z,97534.38
2022-12-10T02:07:06.680Z,97525.88
2022-12-10T02:10:02.919Z,97517.09
2022-12-10T02:12:37.330Z,97528.97
2022-12-10T02:15:17.993Z,97508.81
2022-12-10T02:17:51.419Z,97487.69
2022-12-10T02:20:26.860Z,97510.19
2022-12-10T02:23:05.227Z,97508.75
2022-12-10T02:25:59.181Z,97503.06
2022-12-10T02:28:58.467Z,97496.81
2022-12-10T02:31:33.243Z,97482.97
2022-12-10T02:34:05.709Z,97477.25
2022-12-10T02:36:38.314Z,97460.81
2022-12-10T02:39:12.012Z,97458.91
2022-12-10T02:41:52.528Z,97459.38
2022-12-10T02:44:21.880Z,97455.97
2022-12-10T02:46:52.067Z,97462.19
2022-12-10T02:49:22.081Z,97473.13
2022-12-10T02:51:49.080Z,97466.19
2022-12-10T02:54:38.612Z,97456.88
2022-12-10T02:57:16.170Z,97461.16
2022-12-10T03:00:23.379Z,97467.13
2022-12-10T03:03:26.841Z,97476.72
2022-12-10T03:06:12.701Z,97471.53
2022-12-10T03:08:43.070Z,97479.00
2022-12-10T03:11:12.238Z,97477.63
2022-12-10T03:14:05.150Z,97477.19
2022-12-10T03:16:37.559Z,97475.63
2022-12-10T03:19:08.956Z,97479.06
2022-12-10T03:21:38.986Z,97479.63
2022-12-10T03:24:10.897Z,97485.97
2022-12-10T03:26:39.864Z,97483.41
2022-12-10T03:29:11.884Z,97470.75
2022-12-10T03:31:40.426Z,97479.06
2022-12-10T03:34:10.216Z,97479.53
2022-12-10T03:36:37.804Z,97491.28
2022-12-10T03:39:06.171Z,97505.38
2022-12-10T03:41:33.031Z,97497.34
2022-12-10T03:44:01.024Z,97498.94
2022-12-10T03:46:30.404Z,97498.69
2022-12-10T03:48:58.601Z,97500.81
2022-12-10T03:51:25.659Z,97500.44
2022-12-10T03:53:52.518Z,97492.50
2022-12-10T03:56:20.531Z,97497.03
2022-12-10T03:58:48.184Z,97496.03
2022-12-10T04:01:15.743Z,97475.22
2022-12-10T04:03:43.469Z,97487.50
2022-12-10T04:06:16.049Z,97485.50
2022-12-10T04:08:43.887Z,97473.75
2022-12-10T04:11:12.990Z,97474.91
2022-12-10T04:14:01.105Z,97479.41
2022-12-10T04:16:29.072Z,97483.69
2022-12-10T04:19:02.518Z,97480.97
2022-12-10T04:21:50.743Z,97481.78
2022-12-10T04:24:40.613Z,97474.72
2022-12-10T04:27:11.671Z,97483.34
2022-12-10T04:29:38.783Z,97476.91
2022-12-10T04:32:05.979Z,97485.41
2022-12-10T04:34:32.952Z,97488.59
2022-12-10T04:37:00.570Z,97491.19
2022-12-10T04:39:27.466Z,97494.09
2022-12-10T04:41:54.353Z,97500.88
2022-12-10T04:44:21.328Z,97488.81
2022-12-10T04:46:49.321Z,97474.19
2022-12-10T04:49:16.726Z,97469.34
2022-12-10T04:51:44.097Z,97458.56
2022-12-10T04:54:11.166Z,97463.03
2022-12-10T04:56:38.076Z,97448.97
2022-12-10T04:59:06.126Z,97442.84
2022-12-10T05:01:33.766Z,97448.22
2022-12-10T05:04:06.592Z,97467.16
2022-12-10T05:06:34.869Z,97483.59
2022-12-10T05:09:02.670Z,97474.84
2022-12-10T05:11:31.399Z,97492.94
2022-12-10T05:13:59.083Z,97495.63
2022-12-10T05:16:28.982Z,97506.13
2022-12-10T05:18:56.986Z,97509.38
2022-12-10T05:21:25.576Z,97511.78
2022-12-10T05:23:53.427Z,97502.88
2022-12-10T05:26:24.478Z,97501.75
2022-12-10T05:28:56.383Z,97486.28
2022-12-10T05:31:26.703Z,97490.25
2022-12-10T05:33:55.478Z,97480.78
2022-12-10T05:36:29.770Z,97491.56
2022-12-10T05:38:57.846Z,97488.03
2022-12-10T05:41:28.956Z,97477.66
2022-12-10T05:43:57.111Z,97484.94
2022-12-10T05:46:28.217Z,97487.25
2022-12-10T05:48:55.577Z,97507.53
2022-12-10T05:51:25.679Z,97517.31
2022-12-10T05:53:53.633Z,97524.44
2022-12-10T05:56:23.322Z,97515.09
2022-12-10T05:58:52.440Z,97510.25
2022-12-10T06:01:22.445Z,97515.91
2022-12-10T06:03:51.144Z,97516.56
2022-12-10T06:06:25.795Z,97499.69
2022-12-10T06:08:53.130Z,97499.97
2022-12-10T06:11:20.480Z,97506.47
2022-12-10T06:13:51.746Z,97503.00
2022-12-10T06:16:21.931Z,97512.25
2022-12-10T06:18:48.884Z,97506.41
2022-12-10T06:21:18.199Z,97514.94
2022-12-10T06:23:46.025Z,97525.44
2022-12-10T06:26:17.179Z,97521.44
2022-12-10T06:28:46.344Z,97498.16
2022-12-10T06:31:13.750Z,97509.97
2022-12-10T06:33:40.947Z,97508.81
2022-12-10T06:36:10.755Z,97502.06
2022-12-10T06:38:38.510Z,97494.69
2022-12-10T06:41:07.256Z,97493.91
2022-12-10T06:43:34.583Z,97493.75
2022-12-10T06:46:07.068Z,97497.78
2022-12-10T06:48:34.071Z,97503.19
2022-12-10T06:51:00.953Z,97520.03
2022-12-10T06:53:28.006Z,97512.63
2022-12-10T06:55:54.905Z,97508.25
2022-12-10T06:58:21.720Z,97517.03
2022-12-10T07:00:48.609Z,97517.63
2022-12-10T07:03:15.655Z,97512.19
2022-12-10T07:05:42.711Z,97505.09
2022-12-10T07:08:09.601Z,97498.75
2022-12-10T07:10:39.117Z,97513.66
2022-12-10T07:13:05.916Z,97498.63
2022-12-10T07:15:32.767Z,97493.25
2022-12-10T07:18:00.189Z,97498.44
2022-12-10T07:20:26.967Z,97483.00
2022-12-10T07:22:54.024Z,97471.28
2022-12-10T07:25:21.009Z,97465.88
2022-12-10T07:27:48.057Z,97477.84
2022-12-10T07:30:14.914Z,97468.53
2022-12-10T07:32:41.760Z,97475.16
2022-12-10T07:35:09.173Z,97475.84
2022-12-10T07:37:36.017Z,97470.59
2022-12-10T07:40:02.965Z,97470.75
2022-12-10T07:42:29.936Z,97462.44
2022-12-10T07:44:56.913Z,97465.38
2022-12-10T07:47:24.382Z,97480.00
2022-12-10T07:49:51.450Z,97474.59
2022-12-10T07:52:18.518Z,97477.78
2022-12-10T07:54:45.656Z,97495.09
2022-12-10T07:57:12.973Z,97481.28
2022-12-10T07:59:40.036Z,97472.44
2022-12-10T08:02:08.905Z,97461.56
2022-12-10T08:04:38.981Z,97464.56
2022-12-10T08:07:05.816Z,97471.69
2022-12-10T08:09:32.920Z,97480.50
2022-12-10T08:12:00.123Z,97478.16
2022-12-10T08:14:27.159Z,97447.06
2022-12-10T08:16:53.915Z,97474.09
2022-12-10T08:19:24.719Z,97461.81
2022-12-10T08:21:54.258Z,97460.16
2022-12-10T08:24:21.087Z,97462.56
2022-12-10T08:26:48.615Z,97454.75
2022-12-10T08:29:15.508Z,97462.03
2022-12-10T08:31:42.663Z,97466.53
2022-12-10T08:34:18.038Z,97454.09
2022-12-10T08:36:45.924Z,97459.91
2022-12-10T08:39:17.850Z,97446.44
2022-12-10T08:41:46.399Z,97445.47
2022-12-10T08:44:14.119Z,97434.88
2022-12-10T08:46:41.822Z,97430.16
2022-12-10T08:49:09.717Z,97420.22
2022-12-10T08:51:37.508Z,97430.91
2022-12-10T08:54:04.533Z,97425.00
2022-12-10T08:56:32.367Z,97418.41
2022-12-10T08:58:59.302Z,97410.13
2022-12-10T09:01:26.680Z,97417.56
2022-12-10T09:03:55.390Z,97414.81
2022-12-10T09:06:25.291Z,97406.38
2022-12-10T09:08:52.737Z,97399.94
2022-12-10T09:11:23.824Z,97402.78
2022-12-10T09:13:51.321Z,97401.63
2022-12-10T09:16:18.387Z,97382.84
2022-12-10T09:18:46.121Z,97384.00
2022-12-10T09:21:16.214Z,97360.97
2022-12-10T09:23:44.012Z,97378.56
2022-12-10T09:26:13.815Z,97377.22
2022-12-10T09:28:42.221Z,97373.66
2022-12-10T09:31:15.517Z,97363.31
2022-12-10T09:33:49.699Z,97381.75
2022-12-10T09:36:16.888Z,97358.41
2022-12-10T09:38:47.849Z,97371.44
2022-12-10T09:41:52.979Z,97362.34
2022-12-10T09:44:35.203Z,97370.81
2022-12-10T09:47:06.766Z,97367.78
2022-12-10T09:49:33.708Z,97357.09
2022-12-10T09:52:04.127Z,97337.66
2022-12-10T09:54:35.624Z,97341.91
2022-12-10T09:57:06.551Z,97329.25
2022-12-10T09:59:43.833Z,97335.00
2022-12-10T10:02:17.040Z,97337.88
2022-12-10T10:04:44.794Z,97334.00
2022-12-10T10:07:21.824Z,97336.88
2022-12-10T10:09:50.179Z,97323.00
2022-12-10T10:12:17.649Z,97312.34
2022-12-10T10:14:46.245Z,97314.72
2022-12-10T10:17:54.171Z,97293.56
2022-12-10T10:20:21.877Z,97302.19
2022-12-10T10:22:48.700Z,97295.72
2022-12-10T10:25:20.574Z,97267.34
2022-12-10T10:27:47.971Z,97281.91
2022-12-10T10:30:18.842Z,97282.09
2022-12-10T10:32:59.052Z,97285.31
2022-12-10T10:35:42.702Z,97270.97
2022-12-10T10:38:43.036Z,97267.06
2022-12-10T10:41:15.635Z,97262.31
2022-12-10T10:43:48.631Z,97262.34
2022-12-10T10:46:23.329Z,97265.72
2022-12-10T10:48:51.013Z,97253.25
2022-12-10T10:51:24.580Z,97262.84
2022-12-10T10:53:53.848Z,97256.94
2022-12-10T10:56:27.445Z,97251.53
2022-12-10T10:59:06.822Z,97257.63
2022-12-10T11:01:49.448Z,97255.56
2022-12-10T11:04:18.890Z,97246.63
2022-12-10T11:06:46.428Z,97254.22
2022-12-10T11:09:22.409Z,97238.13
2022-12-10T11:11:59.646Z,97235.13
2022-12-10T11:14:35.256Z,97224.47
2022-12-10T11:17:14.298Z,97223.94
2022-12-10T11:19:58.400Z,97217.03
2022-12-10T11:22:29.261Z,97207.88
2022-12-10T11:24:57.043Z,97200.97
2022-12-10T11:27:32.793Z,97198.75
2022-12-10T11:30:09.830Z,97192.47
2022-12-10T11:32:54.781Z,97197.53
2022-12-10T11:36:00.664Z,97189.91
2022-12-10T11:38:32.059Z,97175.38
2022-12-10T11:41:26.295Z,97163.66
2022-12-10T11:43:54.002Z,97162.25
2022-12-10T11:46:31.814Z,97171.16
2022-12-10T11:49:07.383Z,97153.88
2022-12-10T11:52:03.507Z,97159.25
2022-12-10T11:54:33.779Z,97160.44
2022-12-10T11:57:26.001Z,97133.25
2022-12-10T12:00:05.988Z,97127.53
2022-12-10T12:02:58.501Z,97131.38
2022-12-10T12:05:41.413Z,97138.78
2022-12-10T12:08:21.614Z,97122.34
2022-12-10T12:11:13.624Z,97117.59
2022-12-10T12:14:10.039Z,97112.19
2022-12-10T12:16:45.830Z,97110.88
2022-12-10T12:19:18.440Z,97094.28
2022-12-10T12:21:48.682Z,97085.84
2022-12-10T12:24:26.343Z,97092.75
2022-12-10T12:26:59.246Z,97090.91
2022-12-10T12:29:37.490Z,97090.03
2022-12-10T12:32:13.438Z,97092.97
2022-12-10T12:35:01.428Z,97088.91
2022-12-10T12:37:42.772Z,97081.16
2022-12-10T12:40:28.350Z,97085.63
2022-12-10T12:43:05.953Z,97087.53
2022-12-10T12:45:36.957Z,97075.84
2022-12-10T12:48:57.116Z,97079.31
2022-12-10T12:51:41.148Z,97070.34
2022-12-10T12:54:13.081Z,97057.66
2022-12-10T12:56:59.346Z,97034.44
2022-12-10T12:59:28.552Z,97029.16
2022-12-10T13:02:08.449Z,97037.41
2022-12-10T13:04:36.518Z,97037.25
2022-12-10T13:07:15.337Z,97044.81
2022-12-10T13:10:08.806Z,97044.63
2022-12-10T13:12:38.879Z,97033.97
2022-12-10T13:15:44.523Z,97020.25
2022-12-10T13:18:17.488Z,97005.25
2022-12-10T13:21:24.629Z,96996.94
2022-12-10T13:23:55.866Z,96986.94
2022-12-10T13:26:25.380Z,97000.78
2022-12-10T13:28:54.759Z,96994.16
2022-12-10T13:31:31.252Z,96977.25
2022-12-10T13:34:01.198Z,96967.56
2022-12-10T13:36:35.821Z,96974.31
2022-12-10T13:39:05.420Z,96966.84
2022-12-10T13:41:58.551Z,96984.28
2022-12-10T13:44:37.327Z,96983.63
2022-12-10T13:47:28.214Z,96966.72
2022-12-10T13:49:57.435Z,96965.88
2022-12-10T13:52:30.413Z,96963.34
2022-12-10T13:55:23.615Z,96960.53
2022-12-10T13:58:17.739Z,96959.34
2022-12-10T14:00:51.069Z,96953.44
2022-12-10T14:03:39.616Z,96955.13
2022-12-10T14:06:20.960Z,96952.41
2022-12-10T14:08:58.003Z,96951.00
2022-12-10T14:11:35.438Z,96941.03
2022-12-10T14:14:06.263Z,96932.91
2022-12-10T14:16:37.090Z,96920.03
2022-12-10T14:19:13.083Z,96923.56
2022-12-10T14:21:43.086Z,96927.81
2022-12-10T14:24:37.734Z,96922.38
2022-12-10T14:27:27.019Z,96920.56
2022-12-10T14:30:03.844Z,96909.56
2022-12-10T14:32:39.093Z,96897.06
2022-12-10T14:35:12.256Z,96904.16
2022-12-10T14:37:43.488Z,96908.09
2022-12-10T14:40:20.617Z,96910.97
2022-12-10T14:42:47.385Z,96907.44
2022-12-10T14:45:16.839Z,96898.09
2022-12-10T14:47:48.483Z,96883.91
2022-12-10T14:50:17.897Z,96890.97
2022-12-10T14:52:51.290Z,96890.97
2022-12-10T14:55:22.804Z,96874.56
2022-12-10T14:57:55.498Z,96877.09
2022-12-10T15:00:24.585Z,96878.84
2022-12-10T15:02:59.536Z,96872.50
2022-12-10T15:05:32.699Z,96867.84
2022-12-10T15:08:07.953Z,96869.72
2022-12-10T15:10:38.062Z,96860.25
2022-12-10T15:13:07.527Z,96853.38
2022-12-10T15:15:37.625Z,96860.66
2022-12-10T15:18:12.601Z,96874.47
2022-12-10T15:20:48.935Z,96870.91
2022-12-10T15:23:15.887Z,96872.13
2022-12-10T15:25:47.585Z,96864.38
2022-12-10T15:28:35.526Z,96860.66
2022-12-10T15:31:27.542Z,96862.69
2022-12-10T15:34:09.768Z,96852.91
2022-12-10T15:36:36.775Z,96848.66
2022-12-10T15:39:12.436Z,96856.31
2022-12-10T15:41:46.774Z,96852.97
2022-12-10T15:44:31.763Z,96847.72
2022-12-10T15:47:09.851Z,96857.53
2022-12-10T15:49:37.080Z,96839.63
2022-12-10T15:52:04.191Z,96823.59
2022-12-10T15:54:38.236Z,96829.66
2022-12-10T15:57:15.428Z,96816.66
2022-12-10T15:59:42.597Z,96821.06
2022-12-10T16:02:42.910Z,96817.97
2022-12-10T16:05:16.735Z,96792.78
2022-12-10T16:07:43.850Z,96795.84
2022-12-10T16:10:13.544Z,96788.41
2022-12-10T16:12:42.259Z,96795.00
2022-12-10T16:15:17.281Z,96785.97
2022-12-10T16:17:44.532Z,96784.00
2022-12-10T16:20:27.058Z,96777.09
2022-12-10T16:22:55.455Z,96769.16
2022-12-10T16:25:24.294Z,96774.56
2022-12-10T16:27:51.894Z,96756.19
2022-12-10T16:30:24.755Z,96763.00
2022-12-10T16:32:52.988Z,96753.78
2022-12-10T16:35:19.949Z,96741.91
2022-12-10T16:37:51.075Z,96744.63
2022-12-10T16:40:18.695Z,96741.09
2022-12-10T16:42:45.511Z,96728.22
2022-12-10T16:45:36.024Z,96730.91
2022-12-10T16:48:04.028Z,96740.25
2022-12-10T16:50:30.951Z,96732.31
2022-12-10T16:52:58.499Z,96719.25
2022-12-10T16:55:27.157Z,96714.22
2022-12-10T16:57:54.885Z,96716.63
2022-12-10T17:00:25.738Z,96705.16
2022-12-10T17:02:52.919Z,96711.88
2022-12-10T17:05:30.256Z,96713.38
2022-12-10T17:07:57.162Z,96698.75
2022-12-10T17:10:44.029Z,96695.81
2022-12-10T17:13:15.875Z,96688.94
2022-12-10T17:15:44.449Z,96682.06
2022-12-10T17:18:16.744Z,96682.06
2022-12-10T17:20:44.713Z,96678.59
2022-12-10T17:23:11.920Z,96679.41
2022-12-10T17:25:39.716Z,96675.72
2022-12-10T17:28:12.506Z,96667.19
2022-12-10T17:30:39.519Z,96667.19
2022-12-10T17:33:06.397Z,96659.00
2022-12-10T17:35:33.594Z,96670.19
2022-12-10T17:38:00.434Z,96660.03
2022-12-10T17:40:27.320Z,96659.19
2022-12-10T17:42:54.809Z,96655.28
2022-12-10T17:45:22.769Z,96653.59
2022-12-10T17:47:50.250Z,96641.28
2022-12-10T17:50:45.272Z,96639.69
2022-12-10T17:53:15.541Z,96646.78
2022-12-10T17:55:59.811Z,96634.28
2022-12-10T17:58:28.206Z,96631.28
2022-12-10T18:00:55.957Z,96631.13
2022-12-10T18:03:22.949Z,96627.59
2022-12-10T18:05:49.974Z,96608.34
2022-12-10T18:08:23.978Z,96619.66
2022-12-10T18:10:53.860Z,96611.34
2022-12-10T18:13:22.143Z,96599.75
2022-12-10T18:15:49.201Z,96600.78
2022-12-10T18:18:16.611Z,96602.28
2022-12-10T18:20:43.558Z,96607.31
2022-12-10T18:23:12.059Z,96607.81
2022-12-10T18:25:40.898Z,96610.81
2022-12-10T18:28:22.672Z,96590.00
2022-12-10T18:30:49.996Z,96587.94
2022-12-10T18:33:17.555Z,96587.75
2022-12-10T18:35:44.971Z,96580.47
2022-12-10T18:38:15.027Z,96582.00
2022-12-10T18:40:42.088Z,96572.38
2022-12-10T18:43:09.132Z,96573.97
2022-12-10T18:45:36.153Z,96571.72
2022-12-10T18:48:03.242Z,96558.97
2022-12-10T18:50:30.859Z,96559.91
2022-12-10T18:52:57.810Z,96545.69
2022-12-10T18:55:25.492Z,96546.16
2022-12-10T18:58:04.422Z,96537.22
2022-12-10T19:00:36.251Z,96514.56
2022-12-10T19:03:04.387Z,96508.75
2022-12-10T19:05:31.645Z,96502.31
2022-12-10T19:07:58.590Z,96501.69
2022-12-10T19:10:26.339Z,96495.00
2022-12-10T19:12:53.219Z,96504.56
2022-12-10T19:15:21.943Z,96489.94
2022-12-10T19:17:50.054Z,96489.81
2022-12-10T19:20:26.351Z,96480.69
2022-12-10T19:22:54.769Z,96476.09
2022-12-10T19:25:22.324Z,96465.28
2022-12-10T19:27:49.564Z,96454.28
2022-12-10T19:30:24.950Z,96450.56
2022-12-10T19:32:52.356Z,96427.63
2022-12-10T19:35:23.028Z,96429.88
2022-12-10T19:37:55.919Z,96418.22
2022-12-10T19:40:32.490Z,96416.81
2022-12-10T19:43:00.488Z,96405.75
2022-12-10T19:45:28.579Z,96391.19
2022-12-10T19:47:58.141Z,96373.94
2022-12-10T19:50:28.343Z,96349.59
2022-12-10T19:52:55.742Z,96353.91
2022-12-10T19:55:24.731Z,96352.03
2022-12-10T19:57:52.188Z,96360.28
2022-12-10T20:00:21.162Z,96349.72
2022-12-10T20:02:48.345Z,96342.66
2022-12-10T20:05:17.259Z,96320.81
2022-12-10T20:07:45.507Z,96313.28
2022-12-10T20:10:24.902Z,96308.06
2022-12-10T20:12:52.585Z,96306.19
2022-12-10T20:15:21.527Z,96308.53
2022-12-10T20:17:48.639Z,96286.06
2022-12-10T20:20:26.330Z,96284.91
2022-12-10T20:22:54.346Z,96287.16
2022-12-10T20:25:23.292Z,96253.66
2022-12-10T20:27:51.056Z,96265.59
2022-12-10T20:30:24.567Z,96263.91
2022-12-10T20:32:51.807Z,96255.97
2022-12-10T20:35:20.153Z,96241.25
2022-12-10T20:37:47.441Z,96244.38
2022-12-10T20:40:33.278Z,96236.06
2022-12-10T20:43:01.028Z,96227.50
2022-12-10T20:45:28.042Z,96229.00
2022-12-10T20:47:55.008Z,96222.53
2022-12-10T20:50:22.332Z,96203.66
2022-12-10T20:52:49.384Z,96178.47
2022-12-10T20:55:16.889Z,96195.53
2022-12-10T20:57:43.799Z,96201.34
2022-12-10T21:00:17.083Z,96209.44
2022-12-10T21:02:44.573Z,96204.69
2022-12-10T21:05:13.259Z,96212.41
2022-12-10T21:07:40.409Z,96200.94
2022-12-10T21:10:08.102Z,96209.25
2022-12-10T21:12:35.133Z,96204.94
2022-12-10T21:15:06.921Z,96200.16
2022-12-10T21:17:36.123Z,96195.16
2022-12-10T21:20:03.196Z,96186.00
2022-12-10T21:22:30.657Z,96191.41
2022-12-10T21:24:57.549Z,96161.09
2022-12-10T21:27:24.374Z,96153.56
2022-12-10T21:29:51.738Z,96138.31
2022-12-10T21:32:18.605Z,96115.66
2022-12-10T21:34:45.452Z,96127.47
2022-12-10T21:37:12.342Z,96135.59
2022-12-10T21:39:39.181Z,96121.00
2022-12-10T21:42:24.449Z,96103.34
2022-12-10T21:44:54.836Z,96095.66
2022-12-10T21:47:22.103Z,96093.97
2022-12-10T21:49:49.167Z,96081.69
2022-12-10T21:52:16.379Z,96090.25
2022-12-10T21:54:43.830Z,96104.41
2022-12-10T21:57:10.659Z,96098.38
2022-12-10T21:59:37.677Z,96103.97
2022-12-10T22:02:04.731Z,96103.53
2022-12-10T22:04:32.202Z,96108.56
2022-12-10T22:06:59.204Z,96108.13
2022-12-10T22:09:26.037Z,96100.63
2022-12-10T22:11:53.390Z,96107.28
2022-12-10T22:14:20.576Z,96100.25
2022-12-10T22:16:48.752Z,96095.91
2022-12-10T22:19:16.175Z,96095.22
2022-12-10T22:21:43.714Z,96083.97
2022-12-10T22:24:10.593Z,96072.97
2022-12-10T22:26:37.706Z,96080.28
2022-12-10T22:29:04.708Z,96082.13
2022-12-10T22:31:32.306Z,96083.63
2022-12-10T22:33:59.259Z,96086.97
2022-12-10T22:36:26.340Z,96090.06
2022-12-10T22:38:54.953Z,96081.97
2022-12-10T22:41:21.974Z,96087.81
2022-12-10T22:43:50.754Z,96097.19
2022-12-10T22:46:20.280Z,96098.03
2022-12-10T22:48:47.501Z,96099.09
2022-12-10T22:51:14.313Z,96104.03
2022-12-10T22:53:41.977Z,96093.66
2022-12-10T22:56:10.948Z,96119.06
2022-12-10T22:58:38.132Z,96104.47
2022-12-10T23:01:06.098Z,96094.47
2022-12-10T23:03:33.553Z,96065.34
2022-12-10T23:06:01.536Z,96084.28
2022-12-10T23:08:31.320Z,96095.09
2022-12-10T23:10:58.585Z,96104.47
2022-12-10T23:13:25.811Z,96107.81
2022-12-10T23:15:54.419Z,96101.19
2022-12-10T23:18:21.881Z,96085.97
2022-12-10T23:20:50.580Z,96087.41
2022-12-10T23:23:19.590Z,96099.09
2022-12-10T23:25:46.858Z,96089.09
2022-12-10T23:28:14.628Z,96092.03
2022-12-10T23:30:42.275Z,96116.00
2022-12-10T23:33:09.668Z,96148.66
2022-12-10T23:35:41.685Z,96156.38
2022-12-10T23:38:09.363Z,96193.31
2022-12-10T23:40:40.534Z,96193.88
2022-12-10T23:43:07.413Z,96195.59
2022-12-10T23:45:34.345Z,96178.31
2022-12-10T23:48:01.322Z,96178.13
2022-12-10T23:50:28.396Z,96174.16
2022-12-10T23:52:55.259Z,96189.22
2022-12-10T23:55:22.996Z,96180.88
2022-12-10T23:57:49.811Z,96193.59
